sensor_id;sensor_type;location;lat;lon;timestamp;P1;durP1;ratioP1;P2;durP2;ratioP2
7179;SDS011;3631;42.152;24.756;2023-05-07T00:01:43;7.87;;;7.23;;
7179;SDS011;3631;42.152;24.756;2023-05-07T00:04:58;7.50;;;6.33;;
7179;SDS011;3631;42.152;24.756;2023-05-07T00:08:01;7.30;;;6.43;;
7179;SDS011;3631;42.152;24.756;2023-05-07T00:11:36;7.57;;;6.80;;
7179;SDS011;3631;42.152;24.756;2023-05-07T00:15:00;7.17;;;6.47;;
7179;SDS011;3631;42.152;24.756;2023-05-07T00:18:19;7.50;;;6.90;;
7179;SDS011;3631;42.152;24.756;2023-05-07T00:21:08;7.70;;;6.93;;
7179;SDS011;3631;42.152;24.756;2023-05-07T00:24:04;7.53;;;6.83;;
7179;SDS011;3631;42.152;24.756;2023-05-07T00:26:57;7.30;;;6.63;;
7179;SDS011;3631;42.152;24.756;2023-05-07T00:29:57;7.33;;;6.67;;
7179;SDS011;3631;42.152;24.756;2023-05-07T00:33:03;7.53;;;6.70;;
7179;SDS011;3631;42.152;24.756;2023-05-07T00:36:21;6.87;;;6.37;;
7179;SDS011;3631;42.152;24.756;2023-05-07T00:39:29;9.57;;;7.33;;
7179;SDS011;3631;42.152;24.756;2023-05-07T00:42:20;8.73;;;7.93;;
7179;SDS011;3631;42.152;24.756;2023-05-07T00:45:47;8.07;;;7.30;;
7179;SDS011;3631;42.152;24.756;2023-05-07T00:48:51;9.10;;;6.87;;
7179;SDS011;3631;42.152;24.756;2023-05-07T00:51:46;8.00;;;7.30;;
7179;SDS011;3631;42.152;24.756;2023-05-07T00:54:37;9.60;;;7.43;;
7179;SDS011;3631;42.152;24.756;2023-05-07T00:57:42;7.30;;;6.60;;
7179;SDS011;3631;42.152;24.756;2023-05-07T01:00:39;7.07;;;6.57;;
7179;SDS011;3631;42.152;24.756;2023-05-07T01:03:31;6.63;;;6.03;;
7179;SDS011;3631;42.152;24.756;2023-05-07T01:06:27;7.43;;;6.73;;
7179;SDS011;3631;42.152;24.756;2023-05-07T01:09:30;7.13;;;6.40;;
7179;SDS011;3631;42.152;24.756;2023-05-07T01:12:20;7.37;;;6.70;;
7179;SDS011;3631;42.152;24.756;2023-05-07T01:15:21;10.60;;;7.53;;
7179;SDS011;3631;42.152;24.756;2023-05-07T01:21:31;7.43;;;6.73;;
7179;SDS011;3631;42.152;24.756;2023-05-07T01:27:52;8.10;;;7.33;;
7179;SDS011;3631;42.152;24.756;2023-05-07T01:30:47;7.70;;;7.10;;
7179;SDS011;3631;42.152;24.756;2023-05-07T01:33:38;7.67;;;7.07;;
7179;SDS011;3631;42.152;24.756;2023-05-07T01:36:23;8.73;;;7.50;;
7179;SDS011;3631;42.152;24.756;2023-05-07T01:39:14;7.77;;;7.07;;
7179;SDS011;3631;42.152;24.756;2023-05-07T01:45:24;8.53;;;7.93;;
7179;SDS011;3631;42.152;24.756;2023-05-07T01:48:16;10.87;;;9.33;;
7179;SDS011;3631;42.152;24.756;2023-05-07T01:51:00;13.90;;;10.00;;
7179;SDS011;3631;42.152;24.756;2023-05-07T01:53:45;12.43;;;11.07;;
7179;SDS011;3631;42.152;24.756;2023-05-07T01:57:02;11.93;;;10.33;;
7179;SDS011;3631;42.152;24.756;2023-05-07T02:03:18;14.27;;;10.80;;
7179;SDS011;3631;42.152;24.756;2023-05-07T02:06:04;11.57;;;10.23;;
7179;SDS011;3631;42.152;24.756;2023-05-07T02:09:02;13.37;;;11.17;;
7179;SDS011;3631;42.152;24.756;2023-05-07T02:11:56;12.73;;;10.90;;
7179;SDS011;3631;42.152;24.756;2023-05-07T02:15:08;12.10;;;11.00;;
7179;SDS011;3631;42.152;24.756;2023-05-07T02:18:06;17.10;;;11.23;;
7179;SDS011;3631;42.152;24.756;2023-05-07T02:21:02;13.53;;;11.33;;
7179;SDS011;3631;42.152;24.756;2023-05-07T02:23:56;13.13;;;11.60;;
7179;SDS011;3631;42.152;24.756;2023-05-07T02:26:42;16.50;;;12.70;;
7179;SDS011;3631;42.152;24.756;2023-05-07T02:29:46;14.60;;;11.83;;
7179;SDS011;3631;42.152;24.756;2023-05-07T02:32:54;11.40;;;10.27;;
7179;SDS011;3631;42.152;24.756;2023-05-07T02:39:11;15.83;;;10.17;;
7179;SDS011;3631;42.152;24.756;2023-05-07T02:42:14;12.57;;;10.57;;
7179;SDS011;3631;42.152;24.756;2023-05-07T02:45:07;12.23;;;10.60;;
7179;SDS011;3631;42.152;24.756;2023-05-07T02:48:14;10.70;;;9.70;;
7179;SDS011;3631;42.152;24.756;2023-05-07T02:51:13;11.93;;;10.40;;
7179;SDS011;3631;42.152;24.756;2023-05-07T02:54:18;10.80;;;9.80;;
7179;SDS011;3631;42.152;24.756;2023-05-07T02:57:07;11.63;;;10.27;;
7179;SDS011;3631;42.152;24.756;2023-05-07T03:00:09;10.57;;;9.67;;
7179;SDS011;3631;42.152;24.756;2023-05-07T03:03:02;11.23;;;9.57;;
7179;SDS011;3631;42.152;24.756;2023-05-07T03:06:19;9.97;;;9.07;;
7179;SDS011;3631;42.152;24.756;2023-05-07T03:12:20;10.03;;;9.13;;
7179;SDS011;3631;42.152;24.756;2023-05-07T03:15:06;9.93;;;8.93;;
7179;SDS011;3631;42.152;24.756;2023-05-07T03:18:02;12.60;;;9.63;;
7179;SDS011;3631;42.152;24.756;2023-05-07T03:20:58;11.97;;;9.77;;
7179;SDS011;3631;42.152;24.756;2023-05-07T03:23:57;11.37;;;10.27;;
7179;SDS011;3631;42.152;24.756;2023-05-07T03:30:09;11.53;;;10.23;;
7179;SDS011;3631;42.152;24.756;2023-05-07T03:32:49;11.20;;;10.17;;
7179;SDS011;3631;42.152;24.756;2023-05-07T03:35:31;11.90;;;10.70;;
7179;SDS011;3631;42.152;24.756;2023-05-07T03:38:10;12.73;;;11.53;;
7179;SDS011;3631;42.152;24.756;2023-05-07T03:40:50;12.17;;;11.00;;
7179;SDS011;3631;42.152;24.756;2023-05-07T03:43:41;12.87;;;11.23;;
7179;SDS011;3631;42.152;24.756;2023-05-07T03:46:26;13.07;;;11.73;;
7179;SDS011;3631;42.152;24.756;2023-05-07T03:49:10;13.70;;;12.40;;
7179;SDS011;3631;42.152;24.756;2023-05-07T03:52:02;13.50;;;11.07;;
7179;SDS011;3631;42.152;24.756;2023-05-07T03:54:44;11.47;;;9.70;;
7179;SDS011;3631;42.152;24.756;2023-05-07T03:57:43;12.77;;;9.83;;
7179;SDS011;3631;42.152;24.756;2023-05-07T04:00:41;10.67;;;9.60;;
7179;SDS011;3631;42.152;24.756;2023-05-07T04:03:24;9.25;;;8.52;;
7179;SDS011;3631;42.152;24.756;2023-05-07T04:06:09;9.27;;;8.52;;
7179;SDS011;3631;42.152;24.756;2023-05-07T04:08:56;8.52;;;7.70;;
7179;SDS011;3631;42.152;24.756;2023-05-07T04:11:36;8.23;;;7.47;;
7179;SDS011;3631;42.152;24.756;2023-05-07T04:14:18;8.70;;;7.55;;
7179;SDS011;3631;42.152;24.756;2023-05-07T04:17:06;9.10;;;8.38;;
7179;SDS011;3631;42.152;24.756;2023-05-07T04:19:46;9.68;;;8.73;;
7179;SDS011;3631;42.152;24.756;2023-05-07T04:22:29;9.55;;;8.55;;
7179;SDS011;3631;42.152;24.756;2023-05-07T04:25:17;9.45;;;8.77;;
7179;SDS011;3631;42.152;24.756;2023-05-07T04:27:54;9.65;;;8.75;;
7179;SDS011;3631;42.152;24.756;2023-05-07T04:30:26;9.27;;;8.48;;
7179;SDS011;3631;42.152;24.756;2023-05-07T04:33:01;9.07;;;8.27;;
7179;SDS011;3631;42.152;24.756;2023-05-07T04:35:49;8.35;;;7.80;;
7179;SDS011;3631;42.152;24.756;2023-05-07T04:38:32;8.77;;;8.00;;
7179;SDS011;3631;42.152;24.756;2023-05-07T04:41:15;8.20;;;7.63;;
7179;SDS011;3631;42.152;24.756;2023-05-07T04:43:45;9.38;;;8.68;;
7179;SDS011;3631;42.152;24.756;2023-05-07T04:46:18;8.35;;;7.75;;
7179;SDS011;3631;42.152;24.756;2023-05-07T04:48:58;8.07;;;7.57;;
7179;SDS011;3631;42.152;24.756;2023-05-07T04:51:31;8.35;;;7.55;;
7179;SDS011;3631;42.152;24.756;2023-05-07T04:54:06;10.13;;;8.57;;
7179;SDS011;3631;42.152;24.756;2023-05-07T04:56:38;8.20;;;7.70;;
7179;SDS011;3631;42.152;24.756;2023-05-07T04:59:06;8.75;;;8.05;;
7179;SDS011;3631;42.152;24.756;2023-05-07T05:01:41;8.10;;;7.47;;
7179;SDS011;3631;42.152;24.756;2023-05-07T05:04:37;8.30;;;7.45;;
7179;SDS011;3631;42.152;24.756;2023-05-07T05:07:34;8.60;;;7.80;;
7179;SDS011;3631;42.152;24.756;2023-05-07T05:10:23;10.75;;;7.72;;
7179;SDS011;3631;42.152;24.756;2023-05-07T05:13:19;9.55;;;7.75;;
7179;SDS011;3631;42.152;24.756;2023-05-07T05:16:17;8.32;;;7.72;;
7179;SDS011;3631;42.152;24.756;2023-05-07T05:19:18;7.43;;;6.82;;
7179;SDS011;3631;42.152;24.756;2023-05-07T05:22:16;7.82;;;7.30;;
7179;SDS011;3631;42.152;24.756;2023-05-07T05:25:17;8.38;;;7.60;;
7179;SDS011;3631;42.152;24.756;2023-05-07T05:28:17;7.82;;;7.22;;
7179;SDS011;3631;42.152;24.756;2023-05-07T05:30:57;8.80;;;7.40;;
7179;SDS011;3631;42.152;24.756;2023-05-07T05:33:52;10.45;;;7.95;;
7179;SDS011;3631;42.152;24.756;2023-05-07T05:37:05;11.60;;;7.70;;
7179;SDS011;3631;42.152;24.756;2023-05-07T05:40:02;8.45;;;7.65;;
7179;SDS011;3631;42.152;24.756;2023-05-07T05:42:42;8.02;;;7.30;;
7179;SDS011;3631;42.152;24.756;2023-05-07T05:45:24;7.85;;;7.35;;
7179;SDS011;3631;42.152;24.756;2023-05-07T05:48:14;8.75;;;7.68;;
7179;SDS011;3631;42.152;24.756;2023-05-07T05:51:01;7.90;;;7.30;;
7179;SDS011;3631;42.152;24.756;2023-05-07T05:53:40;8.63;;;7.32;;
7179;SDS011;3631;42.152;24.756;2023-05-07T05:56:25;8.10;;;7.28;;
7179;SDS011;3631;42.152;24.756;2023-05-07T05:59:12;8.63;;;7.93;;
7179;SDS011;3631;42.152;24.756;2023-05-07T06:01:56;8.77;;;8.13;;
7179;SDS011;3631;42.152;24.756;2023-05-07T06:04:41;10.80;;;9.13;;
7179;SDS011;3631;42.152;24.756;2023-05-07T06:07:25;10.70;;;8.90;;
7179;SDS011;3631;42.152;24.756;2023-05-07T06:10:10;10.07;;;7.95;;
7179;SDS011;3631;42.152;24.756;2023-05-07T06:12:51;11.43;;;8.50;;
7179;SDS011;3631;42.152;24.756;2023-05-07T06:15:22;10.10;;;8.90;;
7179;SDS011;3631;42.152;24.756;2023-05-07T06:18:04;10.35;;;9.27;;
7179;SDS011;3631;42.152;24.756;2023-05-07T06:20:41;10.07;;;9.15;;
7179;SDS011;3631;42.152;24.756;2023-05-07T06:23:29;10.23;;;8.32;;
7179;SDS011;3631;42.152;24.756;2023-05-07T06:26:24;9.77;;;8.85;;
7179;SDS011;3631;42.152;24.756;2023-05-07T06:28:58;9.35;;;8.55;;
7179;SDS011;3631;42.152;24.756;2023-05-07T06:31:40;9.13;;;8.18;;
7179;SDS011;3631;42.152;24.756;2023-05-07T06:34:12;10.35;;;9.20;;
7179;SDS011;3631;42.152;24.756;2023-05-07T06:36:49;9.32;;;8.45;;
7179;SDS011;3631;42.152;24.756;2023-05-07T06:39:27;8.93;;;8.13;;
7179;SDS011;3631;42.152;24.756;2023-05-07T06:42:15;8.95;;;8.15;;
7179;SDS011;3631;42.152;24.756;2023-05-07T06:44:58;8.85;;;8.15;;
7179;SDS011;3631;42.152;24.756;2023-05-07T06:47:30;11.50;;;8.93;;
7179;SDS011;3631;42.152;24.756;2023-05-07T06:50:12;9.38;;;8.65;;
7179;SDS011;3631;42.152;24.756;2023-05-07T06:52:48;10.27;;;8.45;;
7179;SDS011;3631;42.152;24.756;2023-05-07T06:55:26;9.00;;;8.35;;
7179;SDS011;3631;42.152;24.756;2023-05-07T06:58:11;10.35;;;9.40;;
7179;SDS011;3631;42.152;24.756;2023-05-07T07:00:46;10.05;;;8.82;;
7179;SDS011;3631;42.152;24.756;2023-05-07T07:03:23;9.70;;;8.70;;
7179;SDS011;3631;42.152;24.756;2023-05-07T07:06:02;9.35;;;8.27;;
7179;SDS011;3631;42.152;24.756;2023-05-07T07:08:45;9.02;;;8.23;;
7179;SDS011;3631;42.152;24.756;2023-05-07T07:11:16;8.23;;;7.72;;
7179;SDS011;3631;42.152;24.756;2023-05-07T07:14:02;8.50;;;7.88;;
7179;SDS011;3631;42.152;24.756;2023-05-07T07:16:38;10.32;;;8.10;;
7179;SDS011;3631;42.152;24.756;2023-05-07T07:19:16;9.13;;;8.32;;
7179;SDS011;3631;42.152;24.756;2023-05-07T07:21:53;8.95;;;7.47;;
7179;SDS011;3631;42.152;24.756;2023-05-07T07:24:41;8.90;;;7.93;;
7179;SDS011;3631;42.152;24.756;2023-05-07T07:27:23;9.40;;;8.45;;
7179;SDS011;3631;42.152;24.756;2023-05-07T07:30:04;8.38;;;7.55;;
7179;SDS011;3631;42.152;24.756;2023-05-07T07:32:44;8.55;;;8.02;;
7179;SDS011;3631;42.152;24.756;2023-05-07T07:35:21;8.38;;;7.57;;
7179;SDS011;3631;42.152;24.756;2023-05-07T07:37:50;8.52;;;7.75;;
7179;SDS011;3631;42.152;24.756;2023-05-07T07:40:21;10.07;;;9.15;;
7179;SDS011;3631;42.152;24.756;2023-05-07T07:42:52;9.50;;;8.77;;
7179;SDS011;3631;42.152;24.756;2023-05-07T07:45:30;9.70;;;8.70;;
7179;SDS011;3631;42.152;24.756;2023-05-07T07:48:07;9.65;;;8.52;;
7179;SDS011;3631;42.152;24.756;2023-05-07T07:50:51;8.00;;;7.15;;
7179;SDS011;3631;42.152;24.756;2023-05-07T07:53:33;9.15;;;8.43;;
7179;SDS011;3631;42.152;24.756;2023-05-07T07:56:14;10.55;;;9.48;;
7179;SDS011;3631;42.152;24.756;2023-05-07T07:58:55;9.05;;;8.15;;
7179;SDS011;3631;42.152;24.756;2023-05-07T08:01:41;9.50;;;8.43;;
7179;SDS011;3631;42.152;24.756;2023-05-07T08:04:26;12.25;;;8.15;;
7179;SDS011;3631;42.152;24.756;2023-05-07T08:07:07;8.32;;;7.20;;
7179;SDS011;3631;42.152;24.756;2023-05-07T08:09:41;8.32;;;7.05;;
7179;SDS011;3631;42.152;24.756;2023-05-07T08:12:30;8.15;;;7.35;;
7179;SDS011;3631;42.152;24.756;2023-05-07T08:15:10;7.03;;;6.43;;
7179;SDS011;3631;42.152;24.756;2023-05-07T08:17:55;7.38;;;6.68;;
7179;SDS011;3631;42.152;24.756;2023-05-07T08:20:35;7.90;;;7.15;;
7179;SDS011;3631;42.152;24.756;2023-05-07T08:23:13;7.30;;;6.57;;
7179;SDS011;3631;42.152;24.756;2023-05-07T08:26:04;5.63;;;5.15;;
7179;SDS011;3631;42.152;24.756;2023-05-07T08:28:40;6.50;;;5.47;;
7179;SDS011;3631;42.152;24.756;2023-05-07T08:31:36;5.90;;;5.50;;
7179;SDS011;3631;42.152;24.756;2023-05-07T08:34:26;6.13;;;5.05;;
7179;SDS011;3631;42.152;24.756;2023-05-07T08:37:01;13.88;;;6.07;;
7179;SDS011;3631;42.152;24.756;2023-05-07T08:39:45;5.32;;;5.03;;
7179;SDS011;3631;42.152;24.756;2023-05-07T08:42:44;6.47;;;4.63;;
7179;SDS011;3631;42.152;24.756;2023-05-07T08:45:36;6.78;;;4.68;;
7179;SDS011;3631;42.152;24.756;2023-05-07T08:48:21;10.93;;;4.63;;
7179;SDS011;3631;42.152;24.756;2023-05-07T08:51:08;4.78;;;4.00;;
7179;SDS011;3631;42.152;24.756;2023-05-07T08:54:01;5.03;;;4.63;;
7179;SDS011;3631;42.152;24.756;2023-05-07T08:56:51;5.68;;;5.20;;
7179;SDS011;3631;42.152;24.756;2023-05-07T08:59:34;6.18;;;5.15;;
7179;SDS011;3631;42.152;24.756;2023-05-07T09:02:26;6.05;;;5.45;;
7179;SDS011;3631;42.152;24.756;2023-05-07T09:05:30;5.00;;;4.60;;
7179;SDS011;3631;42.152;24.756;2023-05-07T09:08:13;6.85;;;4.45;;
7179;SDS011;3631;42.152;24.756;2023-05-07T09:10:59;5.22;;;4.82;;
7179;SDS011;3631;42.152;24.756;2023-05-07T09:13:31;5.53;;;5.00;;
7179;SDS011;3631;42.152;24.756;2023-05-07T09:16:14;4.22;;;3.92;;
7179;SDS011;3631;42.152;24.756;2023-05-07T09:18:54;6.70;;;3.45;;
7179;SDS011;3631;42.152;24.756;2023-05-07T09:21:29;4.88;;;3.53;;
7179;SDS011;3631;42.152;24.756;2023-05-07T09:24:17;3.67;;;3.38;;
7179;SDS011;3631;42.152;24.756;2023-05-07T09:26:57;3.83;;;3.53;;
7179;SDS011;3631;42.152;24.756;2023-05-07T09:29:43;3.75;;;3.55;;
7179;SDS011;3631;42.152;24.756;2023-05-07T09:32:22;4.15;;;3.85;;
7179;SDS011;3631;42.152;24.756;2023-05-07T09:35:15;5.03;;;3.83;;
7179;SDS011;3631;42.152;24.756;2023-05-07T09:37:56;5.00;;;3.78;;
7179;SDS011;3631;42.152;24.756;2023-05-07T09:40:37;4.50;;;4.03;;
7179;SDS011;3631;42.152;24.756;2023-05-07T09:43:31;5.30;;;4.30;;
7179;SDS011;3631;42.152;24.756;2023-05-07T09:46:27;5.88;;;4.35;;
7179;SDS011;3631;42.152;24.756;2023-05-07T09:49:27;7.05;;;4.43;;
7179;SDS011;3631;42.152;24.756;2023-05-07T09:52:10;5.38;;;4.85;;
7179;SDS011;3631;42.152;24.756;2023-05-07T09:55:05;4.97;;;4.45;;
7179;SDS011;3631;42.152;24.756;2023-05-07T09:58:09;4.63;;;4.28;;
7179;SDS011;3631;42.152;24.756;2023-05-07T10:01:06;4.55;;;4.25;;
7179;SDS011;3631;42.152;24.756;2023-05-07T10:03:40;4.47;;;4.07;;
7179;SDS011;3631;42.152;24.756;2023-05-07T10:06:27;4.45;;;4.15;;
7179;SDS011;3631;42.152;24.756;2023-05-07T10:09:19;4.35;;;3.78;;
7179;SDS011;3631;42.152;24.756;2023-05-07T10:12:00;6.05;;;4.20;;
7179;SDS011;3631;42.152;24.756;2023-05-07T10:14:59;5.32;;;5.03;;
7179;SDS011;3631;42.152;24.756;2023-05-07T10:17:40;4.40;;;4.10;;
7179;SDS011;3631;42.152;24.756;2023-05-07T10:20:36;5.22;;;4.90;;
7179;SDS011;3631;42.152;24.756;2023-05-07T10:23:28;4.38;;;4.00;;
7179;SDS011;3631;42.152;24.756;2023-05-07T10:26:24;6.90;;;6.50;;
7179;SDS011;3631;42.152;24.756;2023-05-07T10:29:24;5.90;;;4.78;;
7179;SDS011;3631;42.152;24.756;2023-05-07T10:32:19;4.85;;;4.45;;
7179;SDS011;3631;42.152;24.756;2023-05-07T10:35:07;4.70;;;4.40;;
7179;SDS011;3631;42.152;24.756;2023-05-07T10:37:52;4.40;;;4.20;;
7179;SDS011;3631;42.152;24.756;2023-05-07T10:40:22;4.35;;;4.05;;
7179;SDS011;3631;42.152;24.756;2023-05-07T10:42:59;4.53;;;4.03;;
7179;SDS011;3631;42.152;24.756;2023-05-07T10:45:35;7.00;;;4.32;;
7179;SDS011;3631;42.152;24.756;2023-05-07T10:48:18;4.93;;;3.70;;
7179;SDS011;3631;42.152;24.756;2023-05-07T10:50:54;3.72;;;3.53;;
7179;SDS011;3631;42.152;24.756;2023-05-07T11:06:44;4.68;;;3.65;;
7179;SDS011;3631;42.152;24.756;2023-05-07T11:10:13;5.53;;;4.10;;
7179;SDS011;3631;42.152;24.756;2023-05-07T11:13:21;9.20;;;8.35;;
7179;SDS011;3631;42.152;24.756;2023-05-07T11:16:31;4.68;;;3.60;;
7179;SDS011;3631;42.152;24.756;2023-05-07T11:19:11;3.90;;;3.70;;
7179;SDS011;3631;42.152;24.756;2023-05-07T11:25:27;6.25;;;3.72;;
7179;SDS011;3631;42.152;24.756;2023-05-07T11:28:24;5.82;;;3.60;;
7179;SDS011;3631;42.152;24.756;2023-05-07T11:31:12;4.28;;;3.80;;
7179;SDS011;3631;42.152;24.756;2023-05-07T11:34:09;4.28;;;3.88;;
7179;SDS011;3631;42.152;24.756;2023-05-07T11:37:04;3.78;;;3.58;;
7179;SDS011;3631;42.152;24.756;2023-05-07T11:39:57;4.88;;;4.50;;
7179;SDS011;3631;42.152;24.756;2023-05-07T11:46:15;4.18;;;3.88;;
7179;SDS011;3631;42.152;24.756;2023-05-07T11:48:54;4.63;;;3.80;;
7179;SDS011;3631;42.152;24.756;2023-05-07T11:51:42;3.88;;;3.60;;
7179;SDS011;3631;42.152;24.756;2023-05-07T11:54:43;4.15;;;3.80;;
7179;SDS011;3631;42.152;24.756;2023-05-07T11:57:56;6.47;;;4.90;;
7179;SDS011;3631;42.152;24.756;2023-05-07T12:00:59;4.65;;;4.35;;
7179;SDS011;3631;42.152;24.756;2023-05-07T12:04:00;4.05;;;3.72;;
7179;SDS011;3631;42.152;24.756;2023-05-07T12:06:49;4.10;;;3.55;;
7179;SDS011;3631;42.152;24.756;2023-05-07T12:09:51;4.93;;;4.18;;
7179;SDS011;3631;42.152;24.756;2023-05-07T12:12:59;4.55;;;4.18;;
7179;SDS011;3631;42.152;24.756;2023-05-07T12:16:01;4.60;;;4.30;;
7179;SDS011;3631;42.152;24.756;2023-05-07T12:19:03;3.78;;;3.58;;
7179;SDS011;3631;42.152;24.756;2023-05-07T12:21:56;3.90;;;3.53;;
7179;SDS011;3631;42.152;24.756;2023-05-07T12:25:00;4.85;;;4.45;;
7179;SDS011;3631;42.152;24.756;2023-05-07T12:27:53;4.10;;;3.90;;
7179;SDS011;3631;42.152;24.756;2023-05-07T12:31:09;5.97;;;4.20;;
7179;SDS011;3631;42.152;24.756;2023-05-07T12:33:58;4.75;;;4.45;;
7179;SDS011;3631;42.152;24.756;2023-05-07T12:36:38;3.78;;;3.45;;
7179;SDS011;3631;42.152;24.756;2023-05-07T12:39:18;4.50;;;4.10;;
7179;SDS011;3631;42.152;24.756;2023-05-07T12:42:09;3.75;;;3.55;;
7179;SDS011;3631;42.152;24.756;2023-05-07T12:44:59;3.85;;;3.65;;
7179;SDS011;3631;42.152;24.756;2023-05-07T12:47:43;4.05;;;3.42;;
7179;SDS011;3631;42.152;24.756;2023-05-07T12:50:23;5.90;;;3.70;;
7179;SDS011;3631;42.152;24.756;2023-05-07T12:52:55;9.55;;;8.95;;
7179;SDS011;3631;42.152;24.756;2023-05-07T12:55:28;3.83;;;3.58;;
7179;SDS011;3631;42.152;24.756;2023-05-07T12:58:12;4.00;;;3.80;;
7179;SDS011;3631;42.152;24.756;2023-05-07T13:01:11;8.20;;;3.92;;
7179;SDS011;3631;42.152;24.756;2023-05-07T13:04:23;3.67;;;3.45;;
7179;SDS011;3631;42.152;24.756;2023-05-07T13:10:22;4.18;;;3.88;;
7179;SDS011;3631;42.152;24.756;2023-05-07T13:13:27;4.68;;;3.80;;
7179;SDS011;3631;42.152;24.756;2023-05-07T13:16:27;4.35;;;3.95;;
7179;SDS011;3631;42.152;24.756;2023-05-07T13:19:06;3.88;;;3.63;;
7179;SDS011;3631;42.152;24.756;2023-05-07T13:21:42;4.20;;;3.95;;
7179;SDS011;3631;42.152;24.756;2023-05-07T13:24:34;4.25;;;3.80;;
7179;SDS011;3631;42.152;24.756;2023-05-07T13:27:07;4.93;;;3.80;;
7179;SDS011;3631;42.152;24.756;2023-05-07T13:30:05;5.10;;;3.75;;
7179;SDS011;3631;42.152;24.756;2023-05-07T13:32:58;3.47;;;3.25;;
7179;SDS011;3631;42.152;24.756;2023-05-07T13:35:30;4.65;;;3.50;;
7179;SDS011;3631;42.152;24.756;2023-05-07T13:38:05;3.42;;;3.25;;
7179;SDS011;3631;42.152;24.756;2023-05-07T13:40:53;3.65;;;3.30;;
7179;SDS011;3631;42.152;24.756;2023-05-07T13:43:25;3.55;;;3.35;;
7179;SDS011;3631;42.152;24.756;2023-05-07T13:45:59;3.30;;;3.00;;
7179;SDS011;3631;42.152;24.756;2023-05-07T13:48:55;3.33;;;3.05;;
7179;SDS011;3631;42.152;24.756;2023-05-07T13:51:28;3.35;;;3.13;;
7179;SDS011;3631;42.152;24.756;2023-05-07T13:54:03;3.92;;;3.20;;
7179;SDS011;3631;42.152;24.756;2023-05-07T13:56:47;2.88;;;2.78;;
7179;SDS011;3631;42.152;24.756;2023-05-07T13:59:27;5.15;;;3.13;;
7179;SDS011;3631;42.152;24.756;2023-05-07T14:01:57;3.17;;;3.08;;
7179;SDS011;3631;42.152;24.756;2023-05-07T14:04:35;6.05;;;3.38;;
7179;SDS011;3631;42.152;24.756;2023-05-07T14:07:14;4.18;;;3.88;;
7179;SDS011;3631;42.152;24.756;2023-05-07T14:10:04;4.68;;;4.38;;
7179;SDS011;3631;42.152;24.756;2023-05-07T14:12:43;3.05;;;2.80;;
7179;SDS011;3631;42.152;24.756;2023-05-07T14:15:21;4.00;;;3.00;;
7179;SDS011;3631;42.152;24.756;2023-05-07T14:17:54;3.35;;;3.13;;
7179;SDS011;3631;42.152;24.756;2023-05-07T14:20:34;3.10;;;2.80;;
7179;SDS011;3631;42.152;24.756;2023-05-07T14:23:23;3.33;;;2.90;;
7179;SDS011;3631;42.152;24.756;2023-05-07T14:26:00;3.28;;;3.08;;
7179;SDS011;3631;42.152;24.756;2023-05-07T14:28:52;4.85;;;3.45;;
7179;SDS011;3631;42.152;24.756;2023-05-07T14:31:52;2.65;;;2.55;;
7179;SDS011;3631;42.152;24.756;2023-05-07T14:34:32;3.00;;;2.72;;
7179;SDS011;3631;42.152;24.756;2023-05-07T14:37:30;3.33;;;2.75;;
7179;SDS011;3631;42.152;24.756;2023-05-07T14:40:27;2.50;;;2.40;;
7179;SDS011;3631;42.152;24.756;2023-05-07T14:43:16;3.60;;;3.00;;
7179;SDS011;3631;42.152;24.756;2023-05-07T14:49:32;3.60;;;3.30;;
7179;SDS011;3631;42.152;24.756;2023-05-07T14:52:28;4.65;;;2.75;;
7179;SDS011;3631;42.152;24.756;2023-05-07T14:55:38;3.40;;;3.13;;
7179;SDS011;3631;42.152;24.756;2023-05-07T14:58:52;3.78;;;2.63;;
7179;SDS011;3631;42.152;24.756;2023-05-07T15:02:04;4.00;;;3.20;;
7179;SDS011;3631;42.152;24.756;2023-05-07T15:04:58;3.30;;;2.97;;
7179;SDS011;3631;42.152;24.756;2023-05-07T15:07:30;2.90;;;2.70;;
7179;SDS011;3631;42.152;24.756;2023-05-07T15:10:09;3.15;;;2.85;;
7179;SDS011;3631;42.152;24.756;2023-05-07T15:13:03;3.83;;;2.65;;
7179;SDS011;3631;42.152;24.756;2023-05-07T15:16:00;3.22;;;2.90;;
7179;SDS011;3631;42.152;24.756;2023-05-07T15:19:05;5.18;;;2.88;;
7179;SDS011;3631;42.152;24.756;2023-05-07T15:22:02;3.80;;;3.22;;
7179;SDS011;3631;42.152;24.756;2023-05-07T16:38:55;4.47;;;4.20;;
7179;SDS011;3631;42.152;24.756;2023-05-07T16:41:56;4.18;;;3.80;;
7179;SDS011;3631;42.152;24.756;2023-05-07T16:45:05;4.70;;;3.05;;
7179;SDS011;3631;42.152;24.756;2023-05-07T16:47:53;3.20;;;3.00;;
7179;SDS011;3631;42.152;24.756;2023-05-07T16:50:49;3.47;;;3.20;;
7179;SDS011;3631;42.152;24.756;2023-05-07T16:53:46;3.10;;;2.90;;
7179;SDS011;3631;42.152;24.756;2023-05-07T16:59:39;6.85;;;5.03;;
7179;SDS011;3631;42.152;24.756;2023-05-07T17:02:28;5.50;;;4.93;;
7179;SDS011;3631;42.152;24.756;2023-05-07T17:05:26;4.05;;;3.55;;
7179;SDS011;3631;42.152;24.756;2023-05-07T17:08:19;4.88;;;4.28;;
7179;SDS011;3631;42.152;24.756;2023-05-07T17:10:51;3.50;;;3.30;;
7179;SDS011;3631;42.152;24.756;2023-05-07T17:13:24;4.25;;;3.95;;
7179;SDS011;3631;42.152;24.756;2023-05-07T17:15:54;5.80;;;3.72;;
7179;SDS011;3631;42.152;24.756;2023-05-07T17:18:29;3.28;;;3.05;;
7179;SDS011;3631;42.152;24.756;2023-05-07T17:20:59;5.43;;;4.32;;
7179;SDS011;3631;42.152;24.756;2023-05-07T17:23:37;3.97;;;3.67;;
7179;SDS011;3631;42.152;24.756;2023-05-07T17:26:20;3.95;;;3.50;;
7179;SDS011;3631;42.152;24.756;2023-05-07T17:29:04;4.78;;;4.18;;
7179;SDS011;3631;42.152;24.756;2023-05-07T17:31:51;4.05;;;3.75;;
7179;SDS011;3631;42.152;24.756;2023-05-07T17:34:44;4.97;;;3.35;;
7179;SDS011;3631;42.152;24.756;2023-05-07T17:37:18;3.63;;;3.30;;
7179;SDS011;3631;42.152;24.756;2023-05-07T17:40:28;9.32;;;3.55;;
7179;SDS011;3631;42.152;24.756;2023-05-07T17:43:35;6.20;;;3.35;;
7179;SDS011;3631;42.152;24.756;2023-05-07T17:46:40;6.57;;;3.28;;
7179;SDS011;3631;42.152;24.756;2023-05-07T17:49:42;3.85;;;3.60;;
7179;SDS011;3631;42.152;24.756;2023-05-07T17:52:47;4.28;;;3.88;;
7179;SDS011;3631;42.152;24.756;2023-05-07T17:55:44;5.60;;;4.40;;
7179;SDS011;3631;42.152;24.756;2023-05-07T17:58:16;6.28;;;4.95;;
7179;SDS011;3631;42.152;24.756;2023-05-07T18:01:16;4.03;;;3.47;;
7179;SDS011;3631;42.152;24.756;2023-05-07T18:04:03;5.47;;;2.95;;
7179;SDS011;3631;42.152;24.756;2023-05-07T18:06:52;4.05;;;3.05;;
7179;SDS011;3631;42.152;24.756;2023-05-07T18:09:22;3.63;;;3.30;;
7179;SDS011;3631;42.152;24.756;2023-05-07T18:11:54;5.63;;;2.80;;
7179;SDS011;3631;42.152;24.756;2023-05-07T18:14:32;2.67;;;2.50;;
7179;SDS011;3631;42.152;24.756;2023-05-07T18:17:37;3.30;;;3.10;;
7179;SDS011;3631;42.152;24.756;2023-05-07T18:20:38;5.13;;;2.90;;
7179;SDS011;3631;42.152;24.756;2023-05-07T18:23:27;3.45;;;3.08;;
7179;SDS011;3631;42.152;24.756;2023-05-07T18:26:37;3.50;;;3.20;;
7179;SDS011;3631;42.152;24.756;2023-05-07T18:32:40;3.10;;;2.90;;
7179;SDS011;3631;42.152;24.756;2023-05-07T18:35:35;3.72;;;3.42;;
7179;SDS011;3631;42.152;24.756;2023-05-07T18:38:20;4.90;;;3.40;;
7179;SDS011;3631;42.152;24.756;2023-05-07T18:41:00;3.40;;;3.20;;
7179;SDS011;3631;42.152;24.756;2023-05-07T18:43:32;5.13;;;4.05;;
7179;SDS011;3631;42.152;24.756;2023-05-07T18:46:01;6.15;;;3.15;;
7179;SDS011;3631;42.152;24.756;2023-05-07T18:48:38;2.80;;;2.70;;
7179;SDS011;3631;42.152;24.756;2023-05-07T18:51:18;3.90;;;3.42;;
7179;SDS011;3631;42.152;24.756;2023-05-07T18:53:55;5.07;;;4.75;;
7179;SDS011;3631;42.152;24.756;2023-05-07T18:56:33;4.38;;;3.38;;
7179;SDS011;3631;42.152;24.756;2023-05-07T18:59:19;2.83;;;2.63;;
7179;SDS011;3631;42.152;24.756;2023-05-07T19:01:57;4.55;;;2.97;;
7179;SDS011;3631;42.152;24.756;2023-05-07T19:04:41;3.72;;;3.38;;
7179;SDS011;3631;42.152;24.756;2023-05-07T19:07:11;13.18;;;2.90;;
7179;SDS011;3631;42.152;24.756;2023-05-07T19:09:46;3.28;;;3.05;;
7179;SDS011;3631;42.152;24.756;2023-05-07T19:12:18;5.55;;;3.10;;
7179;SDS011;3631;42.152;24.756;2023-05-07T19:14:54;5.03;;;3.80;;
7179;SDS011;3631;42.152;24.756;2023-05-07T19:17:35;4.65;;;3.50;;